Time;durP1;ratioP1;P1;durP2;ratioP2;P2;SDS_P1;SDS_P2;PMS_P1;PMS_P2;Temp;Humidity;BMP_temperature;BMP_pressure;BME280_temperature;BME280_humidity;BME280_pressure;Samples;Min_cycle;Max_cycle;Signal;HPM_P1;HPM_P2
2022/06/22 00:00:38;;;;;;;2.83;2.42;;;17.00;99.90;;;-141.84;56.01;19610.59;5072805;28;20225;-63
2022/06/22 00:03:10;;;;;;;3.22;2.92;;;17.00;99.90;;;-141.84;56.08;19645.16;5071817;28;20258;-62
2022/06/22 00:05:47;;;;;;;5.05;2.80;;;17.00;99.90;;;-141.84;56.45;19604.50;5072212;28;20236;-61
2022/06/22 00:08:22;;;;;;;3.38;2.80;;;16.90;99.90;;;-141.84;56.25;19639.06;5072172;28;20257;-62
2022/06/22 00:10:56;;;;;;;3.42;3.03;;;16.90;99.90;;;-141.84;56.46;19608.56;5073031;28;20181;-62
2022/06/22 00:13:29;;;;;;;3.13;2.83;;;16.80;99.90;;;-141.84;56.63;19606.53;5071599;28;20363;-61
2022/06/22 00:16:02;;;;;;;3.88;2.72;;;16.80;99.90;;;-141.84;55.91;19632.97;5072096;28;20224;-61
2022/06/22 00:18:35;;;;;;;3.45;3.10;;;16.80;99.90;;;-141.84;56.23;19635.00;5071199;28;20228;-62
2022/06/22 00:21:16;;;;;;;2.90;2.63;;;16.80;99.90;;;-141.84;56.22;19616.72;5072232;28;20307;-62
2022/06/22 00:23:49;;;;;;;5.03;2.78;;;16.80;99.90;;;-141.84;56.67;19606.53;5071806;28;20228;-61
2022/06/22 00:26:33;;;;;;;3.08;2.67;;;16.80;99.90;;;-141.84;56.98;19616.72;5071762;28;20217;-63
2022/06/22 00:29:20;;;;;;;4.32;2.65;;;16.80;99.90;;;-141.84;57.74;19574.03;5071946;28;20272;-61
2022/06/22 00:32:03;;;;;;;3.00;2.75;;;16.70;99.90;;;-141.84;58.48;19574.03;5072777;28;20271;-62
2022/06/22 00:34:35;;;;;;;2.95;2.60;;;16.60;99.90;;;-141.84;58.37;19519.16;5071931;28;20563;-62
2022/06/22 00:37:13;;;;;;;4.50;2.88;;;16.60;99.90;;;-141.84;58.33;19535.41;5071509;28;20309;-62
2022/06/22 00:39:45;;;;;;;4.10;2.80;;;16.50;99.90;;;-141.84;58.56;19567.94;5071360;28;20216;-62
2022/06/22 00:42:31;;;;;;;4.13;2.63;;;16.50;99.90;;;-141.84;58.51;19547.59;5071569;28;20729;-62
2022/06/22 00:45:06;;;;;;;3.50;2.65;;;16.50;99.90;;;-141.84;59.17;19535.41;5071048;28;20315;-61
2022/06/22 00:47:39;;;;;;;2.92;2.50;;;16.40;99.90;;;-141.84;59.98;19529.31;5071241;28;20587;-62
2022/06/22 00:50:16;;;;;;;5.32;2.80;;;16.40;99.90;;;-141.84;59.86;19504.94;5071580;28;20189;-62
2022/06/22 00:52:51;;;;;;;4.65;2.88;;;16.40;99.90;;;-141.84;59.52;19533.38;5072359;28;20246;-62
2022/06/22 00:55:27;;;;;;;4.60;2.58;;;16.40;99.90;;;-141.84;59.27;19509.00;5071172;28;20263;-62
2022/06/22 00:58:05;;;;;;;3.97;2.83;;;16.40;99.90;;;-141.84;59.38;19551.69;5068325;28;20311;-62
2022/06/22 01:00:39;;;;;;;5.07;2.63;;;16.30;99.90;;;-141.84;59.35;19478.50;5051138;28;20229;-62
2022/06/22 01:03:20;;;;;;;2.63;2.30;;;16.30;99.90;;;-141.84;59.57;19506.97;5051502;28;20236;-62
2022/06/22 01:05:57;;;;;;;3.83;2.63;;;16.30;99.90;;;-141.84;59.50;19521.19;5062204;28;20319;-62
2022/06/22 01:08:36;;;;;;;2.90;2.60;;;16.30;99.90;;;-141.84;59.27;19509.00;5071070;28;20255;-62
2022/06/22 01:12:16;;;;;;;2.72;2.53;;;16.30;99.90;;;-141.84;59.04;19500.88;5070917;28;20189;-61
2022/06/22 01:14:10;;;;;;;2.40;2.20;;;16.20;99.90;;;-141.84;59.83;19525.25;5070541;28;20197;-62
2022/06/22 01:16:43;;;;;;;3.53;2.67;;;16.20;99.90;;;-141.84;59.90;19492.75;5071671;28;20481;-62
2022/06/22 01:19:29;;;;;;;4.30;2.95;;;16.20;99.90;;;-141.84;60.40;19539.47;5070491;28;20225;-62
2022/06/22 01:22:19;;;;;;;5.60;2.90;;;16.20;99.90;;;-141.84;59.00;19506.97;5071046;28;20236;-62
2022/06/22 01:25:01;;;;;;;3.00;2.70;;;16.10;99.90;;;-141.84;58.99;19531.34;5070594;28;20251;-62
2022/06/22 01:27:37;;;;;;;3.60;2.45;;;16.10;99.90;;;-141.84;59.03;19509.00;5070664;28;20323;-63
2022/06/22 01:30:24;;;;;;;2.60;2.40;;;16.10;99.90;;;-141.84;58.66;19539.47;5069715;28;20231;-62
2022/06/22 01:32:53;;;;;;;2.60;2.40;;;16.10;99.90;;;-141.84;58.61;19541.50;5070659;28;20759;-62
2022/06/22 01:35:26;;;;;;;2.65;2.33;;;16.10;99.90;;;-141.84;59.21;19468.34;5070078;28;20753;-62
2022/06/22 01:37:54;;;;;;;3.13;2.83;;;16.10;99.90;;;-141.84;59.62;19484.59;5070710;28;20654;-62
2022/06/22 01:40:26;;;;;;;3.15;2.55;;;16.00;99.90;;;-141.84;59.68;19460.22;5069997;28;20247;-63
2022/06/22 01:43:07;;;;;;;3.00;2.70;;;16.00;99.90;;;-141.84;59.20;19484.59;5070820;28;20227;-62
2022/06/22 01:45:46;;;;;;;4.13;2.70;;;16.00;99.90;;;-141.84;59.05;19474.44;5070094;28;20232;-63
2022/06/22 01:48:23;;;;;;;2.58;2.38;;;15.90;99.90;;;-141.84;59.34;19488.69;5070168;28;20244;-62
2022/06/22 01:50:59;;;;;;;3.00;2.58;;;15.90;99.90;;;-141.84;58.92;19468.34;5070141;28;20319;-63
2022/06/22 01:53:37;;;;;;;2.50;2.30;;;15.90;99.90;;;-141.84;59.22;19468.34;5070773;28;20228;-62
2022/06/22 01:56:15;;;;;;;3.00;2.40;;;15.90;99.90;;;-141.84;58.93;19484.59;5069863;28;20177;-63
2022/06/22 01:58:57;;;;;;;2.30;2.20;;;15.80;99.90;;;-141.84;58.73;19456.16;5070407;28;20216;-62
2022/06/22 02:01:35;;;;;;;2.70;2.50;;;15.80;99.90;;;-141.84;59.60;19488.69;5069904;28;20224;-63
2022/06/22 02:04:21;;;;;;;2.50;2.30;;;15.80;99.90;;;-141.84;59.76;19468.34;5069870;28;20231;-62
2022/06/22 02:10:28;;;;;;;2.95;2.63;;;15.70;99.90;;;-141.84;60.73;19423.66;5069849;28;20225;-62
2022/06/22 02:13:09;;;;;;;3.50;2.67;;;15.60;99.90;;;-141.84;61.13;19401.28;5049514;28;20304;-64
2022/06/22 02:16:00;;;;;;;3.40;2.65;;;15.50;99.90;;;-141.84;61.38;19423.66;5069697;28;20220;-62
2022/06/22 02:18:39;;;;;;;3.67;2.80;;;15.50;99.90;;;-141.84;61.85;19391.13;5069599;28;20229;-62
2022/06/22 02:21:21;;;;;;;3.70;2.95;;;15.40;99.90;;;-141.84;61.69;19372.84;5069469;28;20258;-63
2022/06/22 02:23:59;;;;;;;3.90;2.67;;;15.40;99.90;;;-141.84;61.62;19439.91;5070386;28;20224;-63
2022/06/22 02:26:35;;;;;;;4.30;3.00;;;15.40;99.90;;;-141.84;62.21;19415.50;5069826;28;20319;-61
2022/06/22 02:29:03;;;;;;;3.03;2.83;;;15.40;99.90;;;-141.84;62.42;19368.78;5069851;28;20279;-61
2022/06/22 02:31:34;;;;;;;3.10;2.65;;;15.40;99.90;;;-141.84;62.79;19368.78;5069953;28;20307;-63
2022/06/22 02:34:03;;;;;;;3.38;3.08;;;15.30;99.90;;;-141.84;63.17;19389.09;5069811;28;20235;-62
2022/06/22 02:36:39;;;;;;;4.55;2.78;;;15.30;99.90;;;-141.84;63.69;19340.31;5069061;28;20221;-61
2022/06/22 02:39:11;;;;;;;3.30;3.00;;;15.20;99.90;;;-141.84;63.70;19350.50;5069480;28;20216;-62
2022/06/22 02:44:31;;;;;;;4.40;2.95;;;15.10;99.90;;;-141.84;63.80;19346.44;5069596;28;20307;-63
2022/06/22 02:47:18;;;;;;;4.10;3.30;;;15.10;99.90;;;-141.84;64.08;19330.16;5069952;28;20611;-63
2022/06/22 02:49:53;;;;;;;3.58;3.28;;;15.10;99.90;;;-141.84;63.93;19342.34;5069643;28;20204;-62
2022/06/22 02:52:30;;;;;;;3.42;2.83;;;15.10;99.90;;;-141.84;64.66;19354.56;5069051;28;20224;-63
2022/06/22 02:55:00;;;;;;;3.22;2.92;;;15.00;99.90;;;-141.84;64.82;19334.22;5069102;28;20307;-63
2022/06/22 02:57:47;;;;;;;3.40;3.08;;;15.00;99.90;;;-141.84;65.01;19338.28;5069222;28;20370;-64
2022/06/22 03:00:18;;;;;;;3.40;2.83;;;15.00;99.90;;;-141.84;64.55;19328.13;5069261;28;20247;-61
2022/06/22 03:02:52;;;;;;;3.97;3.25;;;14.90;99.90;;;-141.84;63.37;19346.44;5069639;28;20303;-63
2022/06/22 03:05:23;;;;;;;4.38;3.25;;;15.00;99.90;;;-141.84;63.66;19342.34;5069173;28;20303;-63
2022/06/22 03:07:55;;;;;;;4.45;2.97;;;15.10;99.90;;;-141.84;63.37;19366.75;5069937;28;20533;-62
2022/06/22 03:10:30;;;;;;;4.13;3.30;;;15.20;99.90;;;-141.84;62.83;19372.84;5068907;28;20298;-62
2022/06/22 03:13:01;;;;;;;3.67;3.13;;;15.20;99.90;;;-141.84;61.90;19395.19;5069146;28;20308;-63
2022/06/22 03:15:36;;;;;;;3.15;2.95;;;15.30;99.90;;;-141.84;61.68;19399.25;5068925;28;20311;-63
2022/06/22 03:18:09;;;;;;;4.97;3.25;;;15.40;99.90;;;-141.84;61.44;19403.31;5068977;28;20308;-62
2022/06/22 03:20:47;;;;;;;3.30;3.00;;;15.40;99.90;;;-141.84;62.46;19389.09;5068969;28;20263;-62
2022/06/22 03:23:23;;;;;;;3.47;3.17;;;15.30;99.90;;;-141.84;62.06;19393.16;5069406;28;20291;-62
2022/06/22 03:25:59;;;;;;;4.03;3.08;;;15.40;99.90;;;-141.84;62.37;19385.03;5069383;28;20323;-62
2022/06/22 03:28:34;;;;;;;3.50;3.30;;;15.40;99.90;;;-141.84;61.61;19458.19;5069318;28;20197;-63
2022/06/22 03:31:11;;;;;;;5.07;3.17;;;15.50;99.90;;;-141.84;61.27;19450.06;5068940;28;20241;-62
2022/06/22 03:33:49;;;;;;;4.03;3.63;;;15.50;99.90;;;-141.84;60.40;19443.97;5049405;28;20222;-62
2022/06/22 03:36:22;;;;;;;4.47;3.20;;;15.60;99.90;;;-141.84;59.81;19480.53;5063592;28;20217;-63
2022/06/22 03:39:01;;;;;;;3.40;3.10;;;15.70;99.90;;;-141.84;59.76;19464.28;5069069;28;20252;-62
2022/06/22 03:41:36;;;;;;;4.80;3.47;;;15.80;99.90;;;-141.84;59.42;19468.34;5068669;28;20243;-62
2022/06/22 03:44:11;;;;;;;7.63;3.17;;;15.80;99.90;;;-141.84;59.41;19521.19;5069190;28;20184;-63
2022/06/22 03:46:46;;;;;;;5.30;3.17;;;15.80;99.90;;;-141.84;59.08;19515.09;5069044;28;20299;-63
2022/06/22 03:49:32;;;;;;;3.03;2.67;;;15.90;99.90;;;-141.84;60.05;19466.31;5068530;28;20315;-62
2022/06/22 03:52:13;;;;;;;3.65;3.00;;;16.00;99.90;;;-141.84;59.95;19509.00;5068950;28;20645;-63
2022/06/22 03:54:50;;;;;;;3.25;2.95;;;16.10;99.90;;;-141.84;59.90;19476.47;5072693;28;20718;-62
2022/06/22 03:57:26;;;;;;;5.95;3.38;;;16.20;99.90;;;-141.84;59.19;19498.84;5072329;28;20306;-65
2022/06/22 03:59:57;;;;;;;2.80;2.60;;;16.20;99.90;;;-141.84;58.84;19504.94;5072475;28;20228;-63
2022/06/22 04:02:27;;;;;;;3.85;3.22;;;16.30;99.90;;;-141.84;58.09;19545.56;5071787;28;20229;-62
2022/06/22 04:04:58;;;;;;;4.32;2.70;;;16.30;99.90;;;-141.84;58.42;19484.59;5073164;28;20622;-62
2022/06/22 04:07:35;;;;;;;4.78;3.10;;;16.30;99.90;;;-141.84;58.77;19486.66;5071985;28;20223;-62
2022/06/22 04:10:06;;;;;;;5.30;3.20;;;16.30;99.90;;;-141.84;58.30;19547.59;5071856;28;20224;-65
2022/06/22 04:12:41;;;;;;;4.75;3.10;;;16.30;99.90;;;-141.84;58.99;19496.81;5071840;28;20235;-62
2022/06/22 04:15:28;;;;;;;3.10;2.83;;;16.30;99.90;;;-141.84;59.99;19490.72;5072321;28;20611;-63
2022/06/22 04:18:02;;;;;;;3.42;2.80;;;16.40;99.90;;;-141.84;58.77;19527.28;5071575;28;20323;-62
2022/06/22 04:20:51;;;;;;;4.70;3.20;;;16.40;99.90;;;-141.84;58.43;19527.28;5071872;28;20304;-64
2022/06/22 04:23:28;;;;;;;3.30;2.88;;;16.50;99.90;;;-141.84;57.95;19541.50;5071582;28;20192;-63
2022/06/22 04:26:04;;;;;;;3.83;3.08;;;16.50;99.90;;;-141.84;58.04;19557.78;5072417;28;20759;-62
2022/06/22 04:28:38;;;;;;;5.38;3.03;;;16.50;99.90;;;-141.84;56.84;19569.97;5071980;28;20280;-63
2022/06/22 04:31:14;;;;;;;3.50;3.20;;;16.70;99.90;;;-141.84;55.86;19606.53;5071661;28;20331;-64
2022/06/22 04:33:47;;;;;;;4.47;2.50;;;16.90;99.90;;;-141.84;55.24;19628.91;5051635;28;20651;-63
2022/06/22 04:36:25;;;;;;;4.38;3.30;;;17.10;99.90;;;-141.84;54.03;19681.75;5066681;28;20307;-62
2022/06/22 04:39:00;;;;;;;3.40;2.80;;;17.30;99.90;;;-141.84;54.24;19702.06;5071754;28;20219;-65
2022/06/22 04:41:33;;;;;;;3.40;2.95;;;17.50;99.90;;;-141.84;53.59;19740.69;5071728;28;20223;-64
2022/06/22 04:44:05;;;;;;;4.03;3.03;;;17.60;99.90;;;-141.84;53.51;19724.41;5071981;28;20188;-63
2022/06/22 04:46:39;;;;;;;3.53;3.13;;;17.80;99.90;;;-141.84;53.18;19767.09;5071743;28;20583;-65
2022/06/22 04:49:22;;;;;;;4.25;3.30;;;17.80;99.90;;;-141.84;51.92;19813.84;5071321;28;20228;-63
2022/06/22 04:51:59;;;;;;;3.85;2.70;;;18.00;99.90;;;-141.84;48.46;20000.81;5057185;28;20824;-63
2022/06/22 04:54:34;;;;;;;3.97;2.53;;;18.80;99.90;;;-141.84;42.54;20460.19;5051705;28;20253;-63
2022/06/22 04:57:10;;;;;;;2.72;2.35;;;20.40;99.90;;;-141.84;38.89;20795.59;5050999;28;20239;-63
2022/06/22 04:59:39;;;;;;;5.72;2.60;;;22.10;99.90;;;-141.84;35.76;21147.28;5051171;28;20243;-63
2022/06/22 05:02:14;;;;;;;3.03;2.40;;;23.70;99.90;;;-141.84;35.24;21126.97;5050994;28;20201;-62
2022/06/22 05:04:49;;;;;;;4.80;2.90;;;24.30;99.90;;;-141.84;36.85;20931.78;5053990;28;20224;-63
2022/06/22 05:07:38;;;;;;;2.90;2.60;;;24.10;99.90;;;-141.84;35.38;21161.53;5070506;28;20256;-63
2022/06/22 05:10:19;;;;;;;3.95;2.33;;;24.30;99.90;;;-141.84;32.76;21517.31;5070760;28;20673;-62
2022/06/22 05:12:58;;;;;;;4.22;2.60;;;25.40;99.90;;;-141.84;30.83;21808.09;5070647;28;20225;-62
2022/06/22 05:15:32;;;;;;;3.50;2.50;;;26.20;99.90;;;-141.84;30.14;22003.31;5071044;28;20683;-64
2022/06/22 05:18:05;;;;;;;2.60;2.40;;;27.10;99.90;;;-141.84;29.70;22074.47;5070663;28;20220;-63
2022/06/22 05:20:41;;;;;;;3.50;2.20;;;27.40;99.90;;;-141.84;28.90;22306.31;5070869;28;20232;-63
2022/06/22 05:23:11;;;;;;;2.95;2.30;;;27.80;99.90;;;-141.84;27.99;22436.47;5070655;28;20283;-63
2022/06/22 05:25:43;;;;;;;3.60;2.40;;;28.60;99.90;;;-141.84;28.33;22410.03;5071715;28;20200;-63
2022/06/22 05:28:16;;;;;;;2.33;2.10;;;28.80;99.90;;;-141.84;28.28;22408.00;5070283;28;20252;-63
2022/06/22 05:30:53;;;;;;;2.58;2.05;;;28.60;99.90;;;-141.84;28.17;22487.31;5071291;28;20246;-63
2022/06/22 05:33:26;;;;;;;2.97;1.90;;;28.70;99.90;;;-141.84;27.69;22517.81;5070754;28;20224;-62
2022/06/22 05:36:03;;;;;;;3.47;1.98;;;29.40;99.90;;;-141.84;27.66;22513.75;5071584;28;20221;-63
2022/06/22 05:38:44;;;;;;;2.40;2.20;;;29.50;99.90;;;-141.84;28.95;22115.16;5071379;28;20361;-63
2022/06/22 05:41:18;;;;;;;3.95;3.58;;;28.40;99.90;;;-141.84;29.82;21960.59;5071075;28;20659;-64
2022/06/22 05:43:47;;;;;;;5.25;3.35;;;27.20;99.90;;;-141.84;31.32;21718.63;5071369;28;20191;-62
2022/06/22 05:46:17;;;;;;;5.07;2.42;;;26.50;99.90;;;-141.84;32.44;21444.13;5071138;28;20243;-62
2022/06/22 05:48:49;;;;;;;3.40;2.13;;;;;;;-141.84;33.84;21204.22;5070579;28;20240;-62
2022/06/22 05:51:25;;;;;;;3.45;2.22;;;;;;;-141.84;35.98;20982.63;5070425;28;20311;-63
2022/06/22 05:54:01;;;;;;;3.03;2.65;;;;;;;-141.84;36.86;20834.22;5070711;28;20252;-65
2022/06/22 05:56:38;;;;;;;3.17;2.80;;;;;;;-141.84;38.37;20724.44;5071155;28;20220;-62
2022/06/22 05:59:13;;;;;;;2.95;2.63;;;;;;;-141.84;39.15;20651.25;5070643;28;20191;-61
2022/06/22 06:01:48;;;;;;;4.50;2.80;;;;;;;-141.84;39.70;20626.88;5071478;28;20194;-62
2022/06/22 06:04:27;;;;;;;3.30;2.97;;;;;;;-141.84;39.83;20571.97;5070123;28;20320;-64
2022/06/22 06:07:01;;;;;;;3.88;2.50;;;;;;;-141.84;40.64;20549.63;5050709;28;20574;-64
2022/06/22 06:09:33;;;;;;;3.35;2.60;;;;;;;-141.84;40.82;20545.56;5055325;28;20212;-64
2022/06/22 06:12:06;;;;;;;2.55;2.20;;;;;;;-141.84;40.77;20549.63;5050204;28;20775;-64
2022/06/22 06:14:39;;;;;;;4.35;2.65;;;;;;;-141.84;41.77;20515.06;5050280;28;20304;-64
2022/06/22 06:17:11;;;;;;;3.08;2.50;;;;;;;-141.84;40.50;20565.88;5050578;28;20272;-63
2022/06/22 06:19:43;;;;;;;2.97;2.40;;;;;;;-141.84;40.38;20565.88;5051100;28;20182;-63
2022/06/22 06:22:13;;;;;;;3.42;2.58;;;;;;;-141.84;40.12;20549.63;5050387;28;20780;-63
2022/06/22 06:27:38;;;;;;;2.95;2.50;;;;;;;-141.84;40.49;20567.91;5069696;28;20598;-64
2022/06/22 06:30:19;;;;;;;2.88;2.20;;;;;;;-141.84;40.40;20561.81;5050557;28;20303;-63
2022/06/22 06:32:54;;;;;;;4.18;2.50;;;;;;;-141.84;40.93;20545.56;5062987;28;20315;-62
2022/06/22 06:35:29;;;;;;;4.28;2.55;;;;;;;-141.84;40.65;20551.66;5070021;28;20208;-63
2022/06/22 06:38:09;;;;;;;6.60;2.80;;;;;;;-141.84;40.62;20582.16;5070838;28;20180;-63
2022/06/22 06:40:47;;;;;;;5.95;2.70;;;;;;;-141.84;41.05;20574.00;5070946;28;20185;-63
2022/06/22 06:43:42;;;;;;;5.80;3.17;;;23.00;99.90;;;-141.84;41.75;20547.59;5070292;28;20232;-63
2022/06/22 06:46:18;;;;;;;5.05;2.80;;;22.90;99.90;;;-141.84;41.94;20549.63;5069185;28;20625;-64
2022/06/22 06:48:55;;;;;;;3.50;2.38;;;22.90;99.90;;;-141.84;40.45;20571.97;5069818;28;20776;-62
2022/06/22 06:51:27;;;;;;;5.20;2.53;;;;;;;-141.84;42.13;20531.31;5069853;28;21012;-62
2022/06/22 06:54:06;;;;;;;4.53;2.90;;;22.70;99.90;;;-141.84;41.08;20517.09;5069697;28;20226;-63
2022/06/22 06:56:44;;;;;;;3.30;2.63;;;22.70;99.90;;;-141.84;41.59;20527.25;5070701;28;20232;-62
2022/06/22 06:59:18;;;;;;;3.97;2.80;;;22.60;99.90;;;-141.84;41.55;20504.91;5069839;28;20191;-62
2022/06/22 07:01:49;;;;;;;4.70;2.35;;;22.50;99.90;;;-141.84;41.63;20515.06;5070794;28;20188;-63
2022/06/22 07:04:24;;;;;;;3.80;2.42;;;22.50;99.90;;;-141.84;41.59;20494.75;5069774;28;20608;-63
2022/06/22 07:07:01;;;;;;;3.20;2.40;;;22.40;99.90;;;-141.84;41.05;20511.00;5070429;28;20250;-63
2022/06/22 07:09:34;;;;;;;3.78;2.88;;;22.60;99.90;;;-141.84;40.38;20561.81;5070038;28;20238;-61
2022/06/22 07:12:11;;;;;;;3.88;2.95;;;22.60;99.90;;;-141.84;39.33;20578.09;5070330;28;20316;-64
2022/06/22 07:14:44;;;;;;;3.45;2.67;;;22.70;99.90;;;-141.84;38.65;20582.16;5070209;28;20269;-63
2022/06/22 07:17:16;;;;;;;5.07;2.90;;;22.60;99.90;;;-141.84;40.10;20513.03;5070341;28;20184;-62
2022/06/22 07:19:52;;;;;;;4.13;2.88;;;22.50;99.90;;;-141.84;40.98;20494.75;5070592;28;20195;-62
2022/06/22 07:22:28;;;;;;;3.42;2.70;;;22.30;99.90;;;-141.84;40.96;20498.81;5069936;28;20286;-63
2022/06/22 07:25:05;;;;;;;4.50;3.40;;;22.30;99.90;;;-141.84;41.23;20496.78;5070047;28;20765;-62
2022/06/22 07:27:41;;;;;;;5.63;3.28;;;22.30;99.90;;;-141.84;41.81;20478.47;5071560;28;20254;-62
2022/06/22 07:30:16;;;;;;;5.65;3.33;;;22.40;99.90;;;-141.84;41.71;20468.31;5073835;28;20224;-62
2022/06/22 07:32:56;;;;;;;3.40;3.03;;;22.40;99.90;;;-141.84;42.97;20456.13;5073580;28;20216;-62
2022/06/22 07:35:32;;;;;;;4.22;3.38;;;22.30;99.90;;;-141.84;42.27;20472.38;5073666;28;20648;-62
2022/06/22 07:38:11;;;;;;;5.50;3.63;;;22.30;99.90;;;-141.84;41.84;20504.91;5074954;28;20275;-63
2022/06/22 07:41:18;;;;;;;3.30;3.00;;;22.40;99.90;;;-141.84;42.04;20480.50;5074053;28;20283;-62
2022/06/22 07:43:32;;;;;;;6.10;3.97;;;22.40;99.90;;;-141.84;41.84;20466.28;5073216;28;20640;-62
2022/06/22 07:46:02;;;;;;;5.05;3.10;;;22.20;99.90;;;-141.84;42.46;20447.97;5073338;28;20323;-63
2022/06/22 07:48:38;;;;;;;3.85;3.55;;;22.20;99.90;;;-141.84;42.49;20443.91;5073437;28;20229;-61
2022/06/22 07:51:14;;;;;;;4.40;3.60;;;22.00;99.90;;;-141.84;42.23;20427.66;5073251;28;20220;-64
2022/06/22 07:53:52;;;;;;;4.07;3.38;;;22.00;99.90;;;-141.84;42.06;20437.81;5073506;28;20274;-63
2022/06/22 07:56:30;;;;;;;5.45;3.53;;;22.00;99.90;;;-141.84;42.73;20460.19;5073486;28;20226;-63
2022/06/22 07:59:09;;;;;;;3.50;3.20;;;22.10;99.90;;;-141.84;41.10;20545.56;5074494;28;20207;-63
2022/06/22 08:01:42;;;;;;;3.85;3.55;;;22.20;99.90;;;-141.84;41.15;20504.91;5073828;28;20211;-63
2022/06/22 08:04:21;;;;;;;3.47;3.13;;;22.20;99.90;;;-141.84;41.28;20500.84;5073114;28;20311;-62
2022/06/22 08:06:56;;;;;;;4.03;3.35;;;22.30;99.90;;;-141.84;39.71;20549.63;5074108;28;20220;-64
2022/06/22 08:09:33;;;;;;;3.88;3.20;;;22.30;99.90;;;-141.84;40.05;20549.63;5074075;28;20730;-61
2022/06/22 08:12:09;;;;;;;4.75;3.10;;;22.30;99.90;;;-141.84;40.20;20523.19;5072305;28;20250;-61
2022/06/22 08:14:43;;;;;;;2.85;2.65;;;22.20;99.90;;;-141.84;40.92;20480.50;5052868;28;20224;-62
2022/06/22 08:17:21;;;;;;;3.28;2.63;;;22.20;99.90;;;-141.84;40.53;20502.88;5053724;28;20628;-61
2022/06/22 08:19:50;;;;;;;3.60;3.28;;;22.20;99.90;;;-141.84;39.97;20513.03;5063890;28;20727;-65
2022/06/22 08:22:18;;;;;;;3.28;2.97;;;22.20;99.90;;;-141.84;40.01;20543.53;5072453;28;20220;-62
2022/06/22 08:24:50;;;;;;;5.00;3.10;;;22.20;99.90;;;-141.84;40.54;20525.22;5072304;28;20229;-62
2022/06/22 08:27:22;;;;;;;3.50;2.92;;;22.20;99.90;;;-141.84;40.79;20545.56;5072821;28;20248;-62
2022/06/22 08:29:54;;;;;;;3.95;3.03;;;22.20;99.90;;;-141.84;40.63;20500.84;5072314;28;20216;-62
2022/06/22 08:32:30;;;;;;;3.08;2.80;;;22.20;99.90;;;-141.84;40.60;20504.91;5072028;28;20312;-62
2022/06/22 08:35:08;;;;;;;3.95;2.83;;;22.30;99.90;;;-141.84;41.06;20492.72;5072985;28;20260;-61
2022/06/22 08:37:45;;;;;;;4.93;3.08;;;22.30;99.90;;;-141.84;40.42;20533.34;5072744;28;20808;-63
2022/06/22 08:40:25;;;;;;;3.38;2.80;;;22.40;99.90;;;-141.84;39.62;20600.44;5072437;28;20236;-63
2022/06/22 08:43:02;;;;;;;3.55;2.95;;;22.60;99.90;;;-141.84;39.73;20606.53;5072338;28;20323;-63
2022/06/22 08:46:16;;;;;;;4.40;3.13;;;22.70;99.90;;;-141.84;39.21;20663.47;5072188;28;20684;-62
2022/06/22 08:49:19;;;;;;;3.45;2.80;;;22.80;99.90;;;-141.84;39.34;20622.81;5071965;28;20719;-63
2022/06/22 08:52:18;;;;;;;3.22;2.78;;;22.90;99.90;;;-141.84;40.05;20614.66;5069213;28;20254;-63
2022/06/22 08:55:05;;;;;;;3.00;2.70;;;22.90;99.90;;;-141.84;39.31;20671.59;5071765;28;20239;-62
2022/06/22 08:57:51;;;;;;;4.35;3.22;;;23.00;99.90;;;-141.84;38.15;20746.81;5072261;28;20248;-63
2022/06/22 09:00:36;;;;;;;3.13;2.80;;;23.20;99.90;;;-141.84;37.81;20734.59;5071722;28;20243;-62
2022/06/22 09:03:52;;;;;;;5.85;2.83;;;23.30;99.90;;;-141.84;37.57;20748.84;5071288;28;20242;-62
2022/06/22 09:06:56;;;;;;;3.10;2.90;;;23.40;99.90;;;-141.84;37.71;20740.69;5071170;28;20227;-62
2022/06/22 09:10:04;;;;;;;3.22;2.67;;;23.40;99.90;;;-141.84;37.27;20773.22;5071421;28;20300;-63
2022/06/22 09:12:56;;;;;;;3.17;2.63;;;23.40;99.90;;;-141.84;37.88;20728.50;5071388;28;20598;-64
2022/06/22 09:15:43;;;;;;;3.70;2.60;;;23.50;99.90;;;-141.84;37.84;20734.59;5071217;28;20787;-63
2022/06/22 09:18:49;;;;;;;2.72;2.38;;;23.40;99.90;;;-141.84;37.52;20736.63;5071587;28;20331;-63
2022/06/22 09:21:36;;;;;;;2.95;2.53;;;23.40;99.90;;;-141.84;37.88;20728.50;5071549;28;20289;-63
2022/06/22 09:24:20;;;;;;;2.83;2.63;;;23.30;99.90;;;-141.84;37.66;20767.13;5071321;28;20307;-62
2022/06/22 09:27:09;;;;;;;2.60;2.40;;;23.50;99.90;;;-141.84;37.80;20720.38;5070924;28;20303;-63
2022/06/22 09:29:57;;;;;;;2.60;2.40;;;23.40;99.90;;;-141.84;37.50;20732.56;5071203;28;20226;-63
2022/06/22 09:32:55;;;;;;;2.80;2.47;;;23.50;99.90;;;-141.84;36.46;20846.41;5060959;28;20221;-62
2022/06/22 09:36:00;;;;;;;4.25;2.30;;;23.60;99.90;;;-141.84;36.82;20838.28;5058923;28;20228;-64
2022/06/22 09:39:01;;;;;;;4.70;2.38;;;23.70;99.90;;;-141.84;35.53;20874.88;5071111;28;20231;-63
2022/06/22 09:41:49;;;;;;;2.50;2.30;;;23.80;99.90;;;-141.84;35.99;20866.75;5071120;28;20333;-63
2022/06/22 09:45:08;;;;;;;3.30;2.28;;;23.80;99.90;;;-141.84;35.84;20807.78;5070846;28;20216;-63
2022/06/22 09:47:49;;;;;;;2.80;2.53;;;;;;;-141.84;36.46;20858.59;5071487;28;20331;-63
2022/06/22 09:50:46;;;;;;;2.65;2.30;;;;;;;-141.84;36.08;20850.47;5069984;28;20597;-64
2022/06/22 09:53:42;;;;;;;3.10;2.65;;;;;;;-141.84;36.03;20901.31;5070283;28;20656;-64
2022/06/22 09:56:24;;;;;;;3.13;2.50;;;;;;;-141.84;35.12;20954.16;5070745;28;20268;-63
2022/06/22 09:59:26;;;;;;;2.75;2.55;;;;;;;-141.84;35.72;20923.66;5071534;28;20366;-63
2022/06/22 10:02:06;;;;;;;3.05;2.40;;;;;;;-141.84;36.31;20907.41;5070347;28;20246;-63
2022/06/22 10:05:01;;;;;;;3.83;2.60;;;;;;;-141.84;36.53;20862.69;5070483;28;20220;-64
2022/06/22 10:07:54;;;;;;;3.28;2.42;;;;;;;-141.84;35.42;20952.13;5070876;28;20204;-62
2022/06/22 10:10:35;;;;;;;2.92;2.70;;;;;;;-141.84;35.36;20980.59;5070416;28;20326;-62
2022/06/22 10:13:33;;;;;;;3.03;2.72;;;;;;;-141.84;34.85;20970.41;5070753;28;20300;-62
2022/06/22 10:16:31;;;;;;;3.38;2.50;;;;;;;-141.84;35.31;20948.06;5026602;28;20221;-64
2022/06/22 10:19:13;;;;;;;3.50;2.42;;;;;;;-141.84;33.98;21059.88;5059910;28;20270;-65
2022/06/22 10:21:58;;;;;;;4.18;2.50;;;23.50;99.90;;;-141.84;33.74;21047.69;5070022;28;20386;-64
2022/06/22 10:24:47;;;;;;;4.97;2.75;;;;;;;-141.84;33.72;21025.31;5050364;28;20293;-65
2022/06/22 10:27:34;;;;;;;2.15;2.05;;;;;;;-141.84;33.88;21065.97;5050700;28;20260;-63
2022/06/22 10:30:19;;;;;;;5.00;3.28;;;;;;;-141.84;34.28;21035.47;5050085;28;20237;-64
2022/06/22 10:33:27;;;;;;;3.40;2.40;;;;;;;-141.84;34.54;21009.03;5067984;28;20308;-65
2022/06/22 10:36:24;;;;;;;2.83;2.53;;;;;;;-141.84;33.68;21053.78;5046689;28;20235;-65
2022/06/22 10:39:21;;;;;;;5.45;2.88;;;;;;;-141.84;34.50;21011.09;5069912;28;20231;-63
2022/06/22 10:45:20;;;;;;;2.83;2.45;;;;;;;-141.84;34.66;20974.50;4995370;28;20306;-64
2022/06/22 10:48:23;;;;;;;5.75;2.60;;;;;;;-141.84;34.09;21013.13;5068146;28;20307;-63
2022/06/22 10:51:01;;;;;;;3.22;2.55;;;;;;;-141.84;34.08;21047.69;5049547;28;20696;-64
2022/06/22 10:54:08;;;;;;;3.42;2.78;;;;;;;-141.84;33.72;21057.84;5049223;28;20245;-62
2022/06/22 10:57:10;;;;;;;3.30;2.50;;;;;;;-141.84;33.91;21039.53;5069301;28;20305;-64
2022/06/22 11:00:09;;;;;;;2.47;2.28;;;;;;;-141.84;33.76;21063.94;5047587;28;20226;-63
2022/06/22 11:03:22;;;;;;;2.92;2.55;;;;;;;-141.84;33.21;21126.97;5068801;28;20649;-63
2022/06/22 11:06:27;;;;;;;2.40;2.20;;;;;;;-141.84;32.95;21096.47;5054800;28;20725;-62
2022/06/22 11:09:13;;;;;;;2.75;2.28;;;;;;;-141.84;33.32;21110.69;5073802;28;20557;-63
2022/06/22 11:12:07;;;;;;;3.38;2.50;;;;;;;-141.84;32.73;21177.78;5074005;28;20307;-62
2022/06/22 11:15:00;;;;;;;3.15;2.40;;;;;;;-141.84;33.43;21112.72;5074767;28;20267;-64
2022/06/22 11:17:50;;;;;;;5.50;2.60;;;;;;;-141.84;32.99;21139.16;5073538;28;20645;-65
2022/06/22 11:20:51;;;;;;;3.78;2.40;;;;;;;-141.84;32.70;21202.19;5073675;28;20300;-63
2022/06/22 11:23:53;;;;;;;4.20;2.65;;;25.60;99.90;;;-141.84;32.07;21185.91;5073415;28;20228;-63
2022/06/22 11:33:27;;;;;;;2.72;2.50;;;24.60;99.90;;;-141.84;32.33;21212.34;5073091;28;20734;-61